sensor_id;sensor_type;location;lat;lon;timestamp;noise_LAeq;noise_LA_min;noise_LA_max;noise_LA01;noise_LA95
70454;Laerm;57915;47.174;14.680;2023-02-28T00:00:41;40.84;38.15;51.17;;
70454;Laerm;57915;47.174;14.680;2023-02-28T00:01:43;38.92;38.11;40.83;;
70454;Laerm;57915;47.174;14.680;2023-02-28T00:02:44;38.90;38.15;40.81;;
70454;Laerm;57915;47.174;14.680;2023-02-28T00:03:46;38.87;38.09;40.97;;
70454;Laerm;57915;47.174;14.680;2023-02-28T00:04:46;38.75;38.10;41.02;;
70454;Laerm;57915;47.174;14.680;2023-02-28T00:06:02;38.75;38.08;41.35;;
70454;Laerm;57915;47.174;14.680;2023-02-28T00:07:04;38.74;37.99;40.86;;
70454;Laerm;57915;47.174;14.680;2023-02-28T00:08:05;38.76;38.06;41.24;;
70454;Laerm;57915;47.174;14.680;2023-02-28T00:09:06;38.78;38.03;40.73;;
70454;Laerm;57915;47.174;14.680;2023-02-28T00:10:07;38.75;38.15;40.56;;
70454;Laerm;57915;47.174;14.680;2023-02-28T00:11:10;38.75;38.13;39.72;;
70454;Laerm;57915;47.174;14.680;2023-02-28T00:12:10;38.75;38.13;40.25;;
70454;Laerm;57915;47.174;14.680;2023-02-28T00:13:12;38.75;38.13;40.46;;
70454;Laerm;57915;47.174;14.680;2023-02-28T00:14:13;38.80;38.14;39.67;;
70454;Laerm;57915;47.174;14.680;2023-02-28T00:15:14;38.83;38.16;40.67;;
70454;Laerm;57915;47.174;14.680;2023-02-28T00:16:16;38.74;38.11;39.69;;
70454;Laerm;57915;47.174;14.680;2023-02-28T00:17:18;38.77;38.05;40.99;;
70454;Laerm;57915;47.174;14.680;2023-02-28T00:18:21;38.77;38.02;46.11;;
70454;Laerm;57915;47.174;14.680;2023-02-28T00:19:22;38.76;38.13;39.63;;
70454;Laerm;57915;47.174;14.680;2023-02-28T00:20:23;38.74;38.08;39.67;;
70454;Laerm;57915;47.174;14.680;2023-02-28T00:21:26;38.77;38.10;39.90;;
70454;Laerm;57915;47.174;14.680;2023-02-28T00:22:27;38.86;37.99;39.71;;
70454;Laerm;57915;47.174;14.680;2023-02-28T00:23:30;38.89;38.13;39.90;;
70454;Laerm;57915;47.174;14.680;2023-02-28T00:24:30;38.92;38.11;39.78;;
70454;Laerm;57915;47.174;14.680;2023-02-28T00:25:32;38.96;38.16;39.86;;
70454;Laerm;57915;47.174;14.680;2023-02-28T00:26:32;38.82;37.92;39.86;;
70454;Laerm;57915;47.174;14.680;2023-02-28T00:27:35;39.43;38.23;42.08;;
70454;Laerm;57915;47.174;14.680;2023-02-28T00:28:36;54.58;38.26;67.26;;
70454;Laerm;57915;47.174;14.680;2023-02-28T00:29:37;38.79;38.06;39.93;;
70454;Laerm;57915;47.174;14.680;2023-02-28T00:30:38;38.77;38.00;41.02;;
70454;Laerm;57915;47.174;14.680;2023-02-28T00:31:40;38.77;38.01;39.76;;
70454;Laerm;57915;47.174;14.680;2023-02-28T00:32:42;38.73;38.00;39.75;;
70454;Laerm;57915;47.174;14.680;2023-02-28T00:33:44;38.77;38.08;39.74;;
70454;Laerm;57915;47.174;14.680;2023-02-28T00:34:44;38.76;38.14;41.83;;
70454;Laerm;57915;47.174;14.680;2023-02-28T00:35:46;38.75;38.17;39.69;;
70454;Laerm;57915;47.174;14.680;2023-02-28T00:36:48;38.78;38.16;39.96;;
70454;Laerm;57915;47.174;14.680;2023-02-28T00:37:50;58.98;38.17;72.54;;
70454;Laerm;57915;47.174;14.680;2023-02-28T00:38:50;38.85;38.10;39.81;;
70454;Laerm;57915;47.174;14.680;2023-02-28T00:39:55;38.84;38.16;40.12;;
70454;Laerm;57915;47.174;14.680;2023-02-28T00:40:55;38.85;38.16;40.16;;
70454;Laerm;57915;47.174;14.680;2023-02-28T00:41:57;38.79;38.19;39.87;;
70454;Laerm;57915;47.174;14.680;2023-02-28T00:42:57;38.78;38.07;39.84;;
70454;Laerm;57915;47.174;14.680;2023-02-28T00:43:59;38.82;38.05;39.64;;
70454;Laerm;57915;47.174;14.680;2023-02-28T00:45:00;38.80;38.07;39.91;;
70454;Laerm;57915;47.174;14.680;2023-02-28T00:46:02;38.88;38.20;40.97;;
70454;Laerm;57915;47.174;14.680;2023-02-28T00:47:03;38.89;38.01;39.68;;
70454;Laerm;57915;47.174;14.680;2023-02-28T00:48:04;38.91;38.19;39.86;;
70454;Laerm;57915;47.174;14.680;2023-02-28T00:49:05;38.96;38.23;39.87;;
70454;Laerm;57915;47.174;14.680;2023-02-28T00:50:07;38.85;38.16;40.88;;
70454;Laerm;57915;47.174;14.680;2023-02-28T00:51:08;38.80;38.20;39.83;;
70454;Laerm;57915;47.174;14.680;2023-02-28T00:52:11;38.80;38.14;39.74;;
70454;Laerm;57915;47.174;14.680;2023-02-28T00:53:12;38.80;38.12;40.03;;
70454;Laerm;57915;47.174;14.680;2023-02-28T00:54:13;38.83;37.64;39.88;;
70454;Laerm;57915;47.174;14.680;2023-02-28T00:55:14;58.78;38.40;71.03;;
70454;Laerm;57915;47.174;14.680;2023-02-28T00:56:15;38.79;38.16;39.63;;
70454;Laerm;57915;47.174;14.680;2023-02-28T00:57:16;38.79;38.17;41.30;;
70454;Laerm;57915;47.174;14.680;2023-02-28T00:58:17;38.77;38.17;39.67;;
70454;Laerm;57915;47.174;14.680;2023-02-28T00:59:18;38.78;37.99;39.62;;
70454;Laerm;57915;47.174;14.680;2023-02-28T01:00:20;38.80;38.06;40.94;;
70454;Laerm;57915;47.174;14.680;2023-02-28T01:01:20;38.75;38.11;39.62;;
70454;Laerm;57915;47.174;14.680;2023-02-28T01:02:22;38.79;38.19;40.07;;
70454;Laerm;57915;47.174;14.680;2023-02-28T01:03:22;38.82;38.01;39.83;;
70454;Laerm;57915;47.174;14.680;2023-02-28T01:04:24;38.81;38.12;39.71;;
70454;Laerm;57915;47.174;14.680;2023-02-28T01:05:25;38.88;38.17;39.86;;
70454;Laerm;57915;47.174;14.680;2023-02-28T01:06:27;38.92;38.16;40.50;;
70454;Laerm;57915;47.174;14.680;2023-02-28T01:07:28;39.00;38.25;40.21;;
70454;Laerm;57915;47.174;14.680;2023-02-28T01:08:30;39.36;38.22;41.60;;
70454;Laerm;57915;47.174;14.680;2023-02-28T01:09:31;39.25;38.29;40.74;;
70454;Laerm;57915;47.174;14.680;2023-02-28T01:10:32;39.05;38.17;41.42;;
70454;Laerm;57915;47.174;14.680;2023-02-28T01:11:33;38.81;38.18;39.84;;
70454;Laerm;57915;47.174;14.680;2023-02-28T01:12:35;39.33;38.20;56.91;;
70454;Laerm;57915;47.174;14.680;2023-02-28T01:13:35;39.36;38.24;55.19;;
70454;Laerm;57915;47.174;14.680;2023-02-28T01:14:37;38.82;38.08;40.02;;
70454;Laerm;57915;47.174;14.680;2023-02-28T01:15:38;38.79;37.90;40.41;;
70454;Laerm;57915;47.174;14.680;2023-02-28T01:16:41;38.80;38.18;39.54;;
70454;Laerm;57915;47.174;14.680;2023-02-28T01:17:42;38.78;38.07;40.17;;
70454;Laerm;57915;47.174;14.680;2023-02-28T01:18:43;38.79;38.17;40.53;;
70454;Laerm;57915;47.174;14.680;2023-02-28T01:19:44;38.79;38.16;39.74;;
70454;Laerm;57915;47.174;14.680;2023-02-28T01:20:48;38.79;38.15;39.69;;
70454;Laerm;57915;47.174;14.680;2023-02-28T01:21:49;38.81;37.96;39.95;;
70454;Laerm;57915;47.174;14.680;2023-02-28T01:22:52;38.79;38.06;40.43;;
70454;Laerm;57915;47.174;14.680;2023-02-28T01:23:52;38.78;38.09;40.18;;
70454;Laerm;57915;47.174;14.680;2023-02-28T01:24:57;38.78;38.18;39.49;;
70454;Laerm;57915;47.174;14.680;2023-02-28T01:25:58;38.79;38.17;39.69;;
70454;Laerm;57915;47.174;14.680;2023-02-28T01:27:04;38.81;38.21;39.59;;
70454;Laerm;57915;47.174;14.680;2023-02-28T01:28:04;38.81;38.07;39.58;;
70454;Laerm;57915;47.174;14.680;2023-02-28T01:29:06;38.91;38.17;40.83;;
70454;Laerm;57915;47.174;14.680;2023-02-28T01:30:08;38.94;38.09;39.89;;
70454;Laerm;57915;47.174;14.680;2023-02-28T01:31:10;38.90;38.05;41.15;;
70454;Laerm;57915;47.174;14.680;2023-02-28T01:32:10;38.91;38.17;39.85;;
70454;Laerm;57915;47.174;14.680;2023-02-28T01:33:12;38.84;38.15;39.70;;
70454;Laerm;57915;47.174;14.680;2023-02-28T01:34:12;38.94;38.22;40.13;;
70454;Laerm;57915;47.174;14.680;2023-02-28T01:35:14;39.21;38.23;41.02;;
70454;Laerm;57915;47.174;14.680;2023-02-28T01:36:17;39.03;38.21;39.98;;
70454;Laerm;57915;47.174;14.680;2023-02-28T01:37:19;38.83;38.08;40.57;;
70454;Laerm;57915;47.174;14.680;2023-02-28T01:38:21;38.76;38.07;39.63;;
70454;Laerm;57915;47.174;14.680;2023-02-28T01:39:22;38.78;37.71;39.69;;
70454;Laerm;57915;47.174;14.680;2023-02-28T01:40:23;38.78;38.05;39.65;;
70454;Laerm;57915;47.174;14.680;2023-02-28T01:41:25;38.75;38.09;39.56;;
70454;Laerm;57915;47.174;14.680;2023-02-28T01:42:26;38.76;38.07;39.82;;
70454;Laerm;57915;47.174;14.680;2023-02-28T01:43:29;38.78;38.08;39.76;;
70454;Laerm;57915;47.174;14.680;2023-02-28T01:45:50;38.79;37.97;40.83;;
70454;Laerm;57915;47.174;14.680;2023-02-28T01:46:50;38.80;38.13;39.58;;
70454;Laerm;57915;47.174;14.680;2023-02-28T01:47:52;38.82;38.05;39.74;;
70454;Laerm;57915;47.174;14.680;2023-02-28T01:48:55;56.52;38.09;70.51;;
70454;Laerm;57915;47.174;14.680;2023-02-28T01:49:58;41.34;38.42;53.11;;
70454;Laerm;57915;47.174;14.680;2023-02-28T01:51:01;57.18;38.75;69.84;;
70454;Laerm;57915;47.174;14.680;2023-02-28T01:52:04;39.15;38.29;40.84;;
70454;Laerm;57915;47.174;14.680;2023-02-28T01:53:06;39.17;38.12;51.22;;
70454;Laerm;57915;47.174;14.680;2023-02-28T01:54:10;39.00;38.22;43.26;;
70454;Laerm;57915;47.174;14.680;2023-02-28T01:55:13;38.85;38.11;41.49;;
70454;Laerm;57915;47.174;14.680;2023-02-28T01:56:16;38.83;38.12;40.03;;
70454;Laerm;57915;47.174;14.680;2023-02-28T01:57:21;38.81;38.20;39.69;;
70454;Laerm;57915;47.174;14.680;2023-02-28T01:58:23;39.08;38.10;50.16;;
70454;Laerm;57915;47.174;14.680;2023-02-28T01:59:24;40.39;38.49;47.10;;
70454;Laerm;57915;47.174;14.680;2023-02-28T02:00:28;40.13;38.68;43.41;;
70454;Laerm;57915;47.174;14.680;2023-02-28T02:01:29;54.71;38.18;67.30;;
70454;Laerm;57915;47.174;14.680;2023-02-28T02:02:32;38.83;38.03;39.95;;
70454;Laerm;57915;47.174;14.680;2023-02-28T02:03:32;38.80;38.12;39.62;;
70454;Laerm;57915;47.174;14.680;2023-02-28T02:04:37;38.80;38.16;39.77;;
70454;Laerm;57915;47.174;14.680;2023-02-28T02:05:38;38.81;38.04;39.74;;
70454;Laerm;57915;47.174;14.680;2023-02-28T02:06:47;38.85;38.04;40.03;;
70454;Laerm;57915;47.174;14.680;2023-02-28T02:07:49;38.86;38.10;39.81;;
70454;Laerm;57915;47.174;14.680;2023-02-28T02:08:52;38.92;38.16;40.56;;
70454;Laerm;57915;47.174;14.680;2023-02-28T02:10:00;40.10;38.70;42.75;;
70454;Laerm;57915;47.174;14.680;2023-02-28T02:11:03;42.10;39.11;47.23;;
70454;Laerm;57915;47.174;14.680;2023-02-28T02:12:07;39.58;38.33;41.23;;
70454;Laerm;57915;47.174;14.680;2023-02-28T02:13:24;38.85;38.14;40.24;;
70454;Laerm;57915;47.174;14.680;2023-02-28T02:14:32;38.82;38.10;39.72;;
70454;Laerm;57915;47.174;14.680;2023-02-28T02:15:35;38.90;38.18;40.66;;
70454;Laerm;57915;47.174;14.680;2023-02-28T02:16:42;38.89;38.16;39.65;;
70454;Laerm;57915;47.174;14.680;2023-02-28T02:17:47;38.85;38.18;40.36;;
70454;Laerm;57915;47.174;14.680;2023-02-28T02:18:50;38.96;38.25;40.16;;
70454;Laerm;57915;47.174;14.680;2023-02-28T02:21:29;38.98;38.22;40.10;;
70454;Laerm;57915;47.174;14.680;2023-02-28T02:22:50;38.93;38.10;39.84;;
70454;Laerm;57915;47.174;14.680;2023-02-28T02:24:04;52.75;38.10;65.10;;
70454;Laerm;57915;47.174;14.680;2023-02-28T02:25:15;40.56;38.19;51.26;;
70454;Laerm;57915;47.174;14.680;2023-02-28T02:26:28;38.81;38.07;39.82;;
70454;Laerm;57915;47.174;14.680;2023-02-28T02:27:40;38.80;38.14;39.52;;
70454;Laerm;57915;47.174;14.680;2023-02-28T02:28:52;38.81;38.06;40.93;;
70454;Laerm;57915;47.174;14.680;2023-02-28T02:31:25;38.84;38.09;40.99;;
70454;Laerm;57915;47.174;14.680;2023-02-28T02:35:14;38.98;38.18;40.67;;
70454;Laerm;57915;47.174;14.680;2023-02-28T02:36:18;38.97;38.18;41.20;;
70454;Laerm;57915;47.174;14.680;2023-02-28T02:37:26;53.76;38.06;65.73;;
70454;Laerm;57915;47.174;14.680;2023-02-28T02:38:32;39.08;38.06;41.27;;
70454;Laerm;57915;47.174;14.680;2023-02-28T02:39:36;39.39;38.28;45.49;;
70454;Laerm;57915;47.174;14.680;2023-02-28T02:40:42;52.28;38.19;64.75;;
70454;Laerm;57915;47.174;14.680;2023-02-28T02:41:45;39.09;38.19;40.24;;
70454;Laerm;57915;47.174;14.680;2023-02-28T02:42:50;39.15;38.34;40.50;;
70454;Laerm;57915;47.174;14.680;2023-02-28T02:43:52;39.15;38.41;40.32;;
70454;Laerm;57915;47.174;14.680;2023-02-28T02:44:56;39.10;38.15;39.86;;
70454;Laerm;57915;47.174;14.680;2023-02-28T02:45:59;38.98;38.10;41.56;;
70454;Laerm;57915;47.174;14.680;2023-02-28T02:47:03;38.90;38.20;41.00;;
70454;Laerm;57915;47.174;14.680;2023-02-28T02:48:09;38.94;38.23;40.91;;
70454;Laerm;57915;47.174;14.680;2023-02-28T02:49:13;38.93;38.17;39.77;;
70454;Laerm;57915;47.174;14.680;2023-02-28T02:50:17;39.00;38.26;41.17;;
70454;Laerm;57915;47.174;14.680;2023-02-28T02:51:21;38.90;38.21;39.97;;
70454;Laerm;57915;47.174;14.680;2023-02-28T02:52:23;55.07;38.33;67.52;;
70454;Laerm;57915;47.174;14.680;2023-02-28T02:53:27;39.63;38.11;47.04;;
70454;Laerm;57915;47.174;14.680;2023-02-28T02:54:30;38.87;38.17;41.55;;
70454;Laerm;57915;47.174;14.680;2023-02-28T02:55:33;38.88;38.18;39.69;;
70454;Laerm;57915;47.174;14.680;2023-02-28T02:56:35;38.86;38.18;39.82;;
70454;Laerm;57915;47.174;14.680;2023-02-28T02:57:38;38.91;38.18;42.08;;
70454;Laerm;57915;47.174;14.680;2023-02-28T02:58:41;38.89;38.14;39.98;;
70454;Laerm;57915;47.174;14.680;2023-02-28T02:59:43;38.97;38.14;40.41;;
70454;Laerm;57915;47.174;14.680;2023-02-28T03:00:45;38.97;38.09;43.59;;
70454;Laerm;57915;47.174;14.680;2023-02-28T03:01:50;57.49;37.85;72.31;;
70454;Laerm;57915;47.174;14.680;2023-02-28T03:02:51;43.93;37.95;56.42;;
70454;Laerm;57915;47.174;14.680;2023-02-28T03:03:55;56.05;37.20;68.78;;
70454;Laerm;57915;47.174;14.680;2023-02-28T03:04:56;39.27;38.31;42.47;;
70454;Laerm;57915;47.174;14.680;2023-02-28T03:06:02;39.03;38.09;39.93;;
70454;Laerm;57915;47.174;14.680;2023-02-28T03:07:03;40.21;38.27;48.36;;
70454;Laerm;57915;47.174;14.680;2023-02-28T03:08:04;54.77;38.39;67.39;;
70454;Laerm;57915;47.174;14.680;2023-02-28T03:09:05;59.55;37.86;74.44;;
70454;Laerm;57915;47.174;14.680;2023-02-28T03:11:22;38.88;37.87;40.21;;
70454;Laerm;57915;47.174;14.680;2023-02-28T03:12:26;55.61;38.20;68.65;;
70454;Laerm;57915;47.174;14.680;2023-02-28T03:13:36;39.57;38.19;46.50;;
70454;Laerm;57915;47.174;14.680;2023-02-28T03:14:45;53.51;38.26;66.50;;
70454;Laerm;57915;47.174;14.680;2023-02-28T03:15:58;54.93;38.18;67.84;;
70454;Laerm;57915;47.174;14.680;2023-02-28T03:17:10;38.92;37.90;39.98;;
70454;Laerm;57915;47.174;14.680;2023-02-28T03:18:18;38.94;38.19;39.88;;
70454;Laerm;57915;47.174;14.680;2023-02-28T03:19:28;39.10;38.25;43.21;;
70454;Laerm;57915;47.174;14.680;2023-02-28T03:20:34;41.12;38.70;50.99;;
70454;Laerm;57915;47.174;14.680;2023-02-28T03:21:40;39.93;38.43;42.70;;
70454;Laerm;57915;47.174;14.680;2023-02-28T03:22:51;39.38;38.37;42.85;;
70454;Laerm;57915;47.174;14.680;2023-02-28T03:23:56;39.22;38.20;40.88;;
70454;Laerm;57915;47.174;14.680;2023-02-28T03:25:04;39.18;38.24;40.98;;
70454;Laerm;57915;47.174;14.680;2023-02-28T03:26:12;39.12;38.19;40.42;;
70454;Laerm;57915;47.174;14.680;2023-02-28T03:27:16;56.32;38.15;69.49;;
70454;Laerm;57915;47.174;14.680;2023-02-28T03:28:22;45.58;38.25;58.71;;
70454;Laerm;57915;47.174;14.680;2023-02-28T03:29:27;39.65;38.58;41.53;;
70454;Laerm;57915;47.174;14.680;2023-02-28T03:30:33;57.19;38.10;69.58;;
70454;Laerm;57915;47.174;14.680;2023-02-28T03:31:36;49.18;38.30;65.59;;
70454;Laerm;57915;47.174;14.680;2023-02-28T03:32:40;59.33;38.28;71.05;;
70454;Laerm;57915;47.174;14.680;2023-02-28T03:33:44;57.55;38.71;66.94;;
70454;Laerm;57915;47.174;14.680;2023-02-28T03:34:47;61.12;38.59;72.76;;
70454;Laerm;57915;47.174;14.680;2023-02-28T03:35:52;59.32;38.32;71.16;;
70454;Laerm;57915;47.174;14.680;2023-02-28T03:36:56;51.85;38.44;65.31;;
70454;Laerm;57915;47.174;14.680;2023-02-28T03:38:00;57.71;38.31;72.26;;
70454;Laerm;57915;47.174;14.680;2023-02-28T03:39:05;39.03;38.30;39.92;;
70454;Laerm;57915;47.174;14.680;2023-02-28T03:40:08;39.08;38.21;41.05;;
70454;Laerm;57915;47.174;14.680;2023-02-28T03:41:14;60.64;39.74;71.26;;
70454;Laerm;57915;47.174;14.680;2023-02-28T03:42:16;55.10;39.07;67.92;;
70454;Laerm;57915;47.174;14.680;2023-02-28T03:43:20;55.63;37.87;70.28;;
70454;Laerm;57915;47.174;14.680;2023-02-28T03:44:24;55.43;38.38;68.15;;
70454;Laerm;57915;47.174;14.680;2023-02-28T03:45:28;39.18;38.12;40.54;;
70454;Laerm;57915;47.174;14.680;2023-02-28T03:46:31;57.06;38.06;69.59;;
70454;Laerm;57915;47.174;14.680;2023-02-28T03:47:35;56.39;38.60;69.28;;
70454;Laerm;57915;47.174;14.680;2023-02-28T03:48:39;53.04;38.29;64.03;;
70454;Laerm;57915;47.174;14.680;2023-02-28T03:49:43;54.02;38.04;68.67;;
70454;Laerm;57915;47.174;14.680;2023-02-28T03:50:46;50.34;38.23;63.49;;
70454;Laerm;57915;47.174;14.680;2023-02-28T03:51:50;39.11;38.05;40.20;;
70454;Laerm;57915;47.174;14.680;2023-02-28T03:52:55;53.48;38.14;66.12;;
70454;Laerm;57915;47.174;14.680;2023-02-28T03:54:02;48.40;37.11;64.56;;
70454;Laerm;57915;47.174;14.680;2023-02-28T03:55:06;39.58;37.75;44.42;;
70454;Laerm;57915;47.174;14.680;2023-02-28T03:56:11;39.27;38.11;41.92;;
70454;Laerm;57915;47.174;14.680;2023-02-28T03:57:26;56.03;38.28;70.08;;
70454;Laerm;57915;47.174;14.680;2023-02-28T03:58:29;51.81;38.34;63.54;;
70454;Laerm;57915;47.174;14.680;2023-02-28T03:59:32;56.61;38.07;71.02;;
70454;Laerm;57915;47.174;14.680;2023-02-28T04:00:35;58.01;38.17;70.81;;
70454;Laerm;57915;47.174;14.680;2023-02-28T04:01:38;57.50;38.38;71.30;;
70454;Laerm;57915;47.174;14.680;2023-02-28T04:02:41;39.51;38.11;53.78;;
70454;Laerm;57915;47.174;14.680;2023-02-28T04:03:42;39.13;38.10;44.40;;
70454;Laerm;57915;47.174;14.680;2023-02-28T04:04:43;57.71;38.49;69.12;;
70454;Laerm;57915;47.174;14.680;2023-02-28T04:05:46;59.28;38.52;68.79;;
70454;Laerm;57915;47.174;14.680;2023-02-28T04:06:50;57.58;38.84;67.31;;
70454;Laerm;57915;47.174;14.680;2023-02-28T04:07:51;55.12;38.29;68.37;;
70454;Laerm;57915;47.174;14.680;2023-02-28T04:08:54;39.12;38.29;40.49;;
70454;Laerm;57915;47.174;14.680;2023-02-28T04:09:54;39.11;38.18;40.33;;
70454;Laerm;57915;47.174;14.680;2023-02-28T04:10:57;59.33;38.64;69.18;;
70454;Laerm;57915;47.174;14.680;2023-02-28T04:12:00;41.97;38.04;53.22;;
70454;Laerm;57915;47.174;14.680;2023-02-28T04:13:11;58.44;38.65;70.70;;
70454;Laerm;57915;47.174;14.680;2023-02-28T04:14:14;50.09;38.22;66.08;;
70454;Laerm;57915;47.174;14.680;2023-02-28T04:15:16;63.85;40.33;75.64;;
70454;Laerm;57915;47.174;14.680;2023-02-28T04:16:16;61.06;38.91;72.91;;
70454;Laerm;57915;47.174;14.680;2023-02-28T04:17:18;39.49;37.92;45.68;;
70454;Laerm;57915;47.174;14.680;2023-02-28T04:18:19;57.31;38.11;67.40;;
70454;Laerm;57915;47.174;14.680;2023-02-28T04:19:20;43.33;38.80;56.46;;
70454;Laerm;57915;47.174;14.680;2023-02-28T04:20:20;63.76;39.70;76.39;;
70454;Laerm;57915;47.174;14.680;2023-02-28T04:21:22;55.67;38.32;67.22;;
70454;Laerm;57915;47.174;14.680;2023-02-28T04:22:23;63.50;39.08;75.54;;
70454;Laerm;57915;47.174;14.680;2023-02-28T04:23:25;60.39;38.84;68.86;;
70454;Laerm;57915;47.174;14.680;2023-02-28T04:24:27;60.13;38.42;69.98;;
70454;Laerm;57915;47.174;14.680;2023-02-28T04:25:29;39.76;38.41;42.81;;
70454;Laerm;57915;47.174;14.680;2023-02-28T04:26:30;52.78;38.21;64.21;;
70454;Laerm;57915;47.174;14.680;2023-02-28T04:27:31;54.89;38.65;67.01;;
70454;Laerm;57915;47.174;14.680;2023-02-28T04:28:32;45.60;38.01;59.19;;
70454;Laerm;57915;47.174;14.680;2023-02-28T04:29:34;57.13;37.46;69.34;;
70454;Laerm;57915;47.174;14.680;2023-02-28T04:30:34;57.43;38.62;67.20;;
70454;Laerm;57915;47.174;14.680;2023-02-28T04:31:36;62.92;38.47;75.45;;
70454;Laerm;57915;47.174;14.680;2023-02-28T04:32:36;61.30;38.68;70.09;;
70454;Laerm;57915;47.174;14.680;2023-02-28T04:33:38;60.84;42.55;70.31;;
70454;Laerm;57915;47.174;14.680;2023-02-28T04:34:38;62.46;39.06;74.54;;
70454;Laerm;57915;47.174;14.680;2023-02-28T04:35:40;56.44;38.23;70.01;;
70454;Laerm;57915;47.174;14.680;2023-02-28T04:36:41;59.54;38.90;69.44;;
70454;Laerm;57915;47.174;14.680;2023-02-28T04:37:42;52.73;38.57;64.27;;
70454;Laerm;57915;47.174;14.680;2023-02-28T04:38:43;59.84;38.37;71.82;;
70454;Laerm;57915;47.174;14.680;2023-02-28T04:39:46;43.15;38.41;54.98;;
70454;Laerm;57915;47.174;14.680;2023-02-28T04:40:47;62.53;40.00;73.05;;
70454;Laerm;57915;47.174;14.680;2023-02-28T04:41:48;59.96;39.36;68.93;;
70454;Laerm;57915;47.174;14.680;2023-02-28T04:42:49;61.82;40.55;72.01;;
70454;Laerm;57915;47.174;14.680;2023-02-28T04:43:50;59.88;39.30;73.01;;
70454;Laerm;57915;47.174;14.680;2023-02-28T04:44:51;58.44;38.57;67.75;;
70454;Laerm;57915;47.174;14.680;2023-02-28T04:45:53;60.39;39.91;70.42;;
70454;Laerm;57915;47.174;14.680;2023-02-28T04:46:56;55.90;38.31;66.56;;
70454;Laerm;57915;47.174;14.680;2023-02-28T04:47:58;58.50;38.68;69.44;;
70454;Laerm;57915;47.174;14.680;2023-02-28T04:48:58;58.24;38.53;68.60;;
70454;Laerm;57915;47.174;14.680;2023-02-28T04:50:00;56.67;39.52;67.79;;
70454;Laerm;57915;47.174;14.680;2023-02-28T04:51:00;59.82;40.81;72.16;;
70454;Laerm;57915;47.174;14.680;2023-02-28T04:52:03;63.29;39.65;74.06;;
70454;Laerm;57915;47.174;14.680;2023-02-28T04:53:03;58.64;40.05;70.30;;
70454;Laerm;57915;47.174;14.680;2023-02-28T04:54:05;61.07;39.55;70.61;;
70454;Laerm;57915;47.174;14.680;2023-02-28T04:55:08;59.85;39.06;72.83;;
70454;Laerm;57915;47.174;14.680;2023-02-28T04:56:11;60.52;38.36;69.73;;
70454;Laerm;57915;47.174;14.680;2023-02-28T04:57:11;39.96;38.10;48.78;;
70454;Laerm;57915;47.174;14.680;2023-02-28T04:58:13;57.63;39.61;69.59;;
70454;Laerm;57915;47.174;14.680;2023-02-28T04:59:14;39.59;38.07;43.24;;
70454;Laerm;57915;47.174;14.680;2023-02-28T05:00:16;40.03;37.66;54.63;;
70454;Laerm;57915;47.174;14.680;2023-02-28T05:01:20;42.86;38.64;53.35;;
70454;Laerm;57915;47.174;14.680;2023-02-28T05:02:22;60.01;41.51;70.43;;
70454;Laerm;57915;47.174;14.680;2023-02-28T05:03:23;60.44;37.91;73.34;;
70454;Laerm;57915;47.174;14.680;2023-02-28T05:04:25;59.47;36.54;71.92;;
70454;Laerm;57915;47.174;14.680;2023-02-28T05:05:26;55.36;38.94;68.00;;
70454;Laerm;57915;47.174;14.680;2023-02-28T05:06:28;58.91;38.44;72.74;;
70454;Laerm;57915;47.174;14.680;2023-02-28T05:07:29;59.67;38.95;72.48;;
70454;Laerm;57915;47.174;14.680;2023-02-28T05:08:30;58.51;38.84;68.75;;
70454;Laerm;57915;47.174;14.680;2023-02-28T05:09:31;50.10;38.84;67.88;;
70454;Laerm;57915;47.174;14.680;2023-02-28T05:10:34;54.07;38.72;67.28;;
70454;Laerm;57915;47.174;14.680;2023-02-28T05:11:35;58.40;38.45;69.12;;
70454;Laerm;57915;47.174;14.680;2023-02-28T05:12:37;62.05;41.83;71.60;;
70454;Laerm;57915;47.174;14.680;2023-02-28T05:13:38;57.14;38.10;67.16;;
70454;Laerm;57915;47.174;14.680;2023-02-28T05:14:40;55.97;38.19;68.81;;
70454;Laerm;57915;47.174;14.680;2023-02-28T05:15:42;61.30;38.70;71.69;;
70454;Laerm;57915;47.174;14.680;2023-02-28T05:16:42;59.19;39.96;69.45;;
70454;Laerm;57915;47.174;14.680;2023-02-28T05:17:44;60.36;39.86;71.79;;
70454;Laerm;57915;47.174;14.680;2023-02-28T05:18:44;57.22;38.65;67.89;;
70454;Laerm;57915;47.174;14.680;2023-02-28T05:19:46;61.24;38.89;72.44;;
70454;Laerm;57915;47.174;14.680;2023-02-28T05:20:46;43.01;38.17;58.62;;
70454;Laerm;57915;47.174;14.680;2023-02-28T05:21:49;58.96;41.26;70.44;;
70454;Laerm;57915;47.174;14.680;2023-02-28T05:22:50;56.57;37.70;69.65;;
70454;Laerm;57915;47.174;14.680;2023-02-28T05:23:52;59.89;38.49;69.02;;
70454;Laerm;57915;47.174;14.680;2023-02-28T05:24:53;56.71;38.89;67.42;;
70454;Laerm;57915;47.174;14.680;2023-02-28T05:25:56;56.81;38.64;68.41;;
70454;Laerm;57915;47.174;14.680;2023-02-28T05:26:56;61.26;39.99;74.03;;
70454;Laerm;57915;47.174;14.680;2023-02-28T05:27:58;51.70;38.04;67.11;;
70454;Laerm;57915;47.174;14.680;2023-02-28T05:28:59;59.02;38.73;69.02;;
70454;Laerm;57915;47.174;14.680;2023-02-28T05:30:00;55.07;38.82;68.31;;
70454;Laerm;57915;47.174;14.680;2023-02-28T05:31:03;59.99;38.45;70.55;;
70454;Laerm;57915;47.174;14.680;2023-02-28T05:32:05;58.14;38.95;70.00;;
70454;Laerm;57915;47.174;14.680;2023-02-28T05:33:05;59.03;38.91;72.37;;
70454;Laerm;57915;47.174;14.680;2023-02-28T05:34:07;60.33;42.73;68.89;;
70454;Laerm;57915;47.174;14.680;2023-02-28T05:35:08;59.26;39.78;70.86;;
70454;Laerm;57915;47.174;14.680;2023-02-28T05:36:10;60.49;38.42;72.06;;
70454;Laerm;57915;47.174;14.680;2023-02-28T05:37:10;58.96;39.67;68.86;;
70454;Laerm;57915;47.174;14.680;2023-02-28T05:38:12;42.29;38.38;54.55;;
70454;Laerm;57915;47.174;14.680;2023-02-28T05:39:13;62.43;39.68;72.42;;
70454;Laerm;57915;47.174;14.680;2023-02-28T05:40:14;48.49;38.53;64.69;;
70454;Laerm;57915;47.174;14.680;2023-02-28T05:41:17;61.34;42.45;70.26;;
70454;Laerm;57915;47.174;14.680;2023-02-28T05:42:19;59.74;39.49;70.31;;
70454;Laerm;57915;47.174;14.680;2023-02-28T05:43:19;51.24;38.94;65.76;;
70454;Laerm;57915;47.174;14.680;2023-02-28T05:44:21;58.28;39.17;69.27;;
70454;Laerm;57915;47.174;14.680;2023-02-28T05:45:21;59.32;39.60;69.66;;
70454;Laerm;57915;47.174;14.680;2023-02-28T05:46:23;60.81;39.35;71.49;;
70454;Laerm;57915;47.174;14.680;2023-02-28T05:47:23;62.73;41.07;71.88;;
70454;Laerm;57915;47.174;14.680;2023-02-28T05:48:25;57.05;38.42;70.04;;
70454;Laerm;57915;47.174;14.680;2023-02-28T05:49:26;59.62;38.52;70.54;;
70454;Laerm;57915;47.174;14.680;2023-02-28T05:50:27;62.46;41.70;72.26;;
70454;Laerm;57915;47.174;14.680;2023-02-28T05:51:28;59.39;41.31;70.40;;
70454;Laerm;57915;47.174;14.680;2023-02-28T05:52:29;61.05;41.58;70.08;;
70454;Laerm;57915;47.174;14.680;2023-02-28T05:53:30;58.72;39.58;68.98;;
70454;Laerm;57915;47.174;14.680;2023-02-28T05:54:32;60.01;39.51;74.85;;